EGAA - Belfast / Aldergrove Airport
Distance from station: E 5mi, 14km
Updated: 02/17/2018 1:20pm
Clear
Clear
 Wind from SSE
Wind: SSE 6 mph , 9 km/h
Temperature: 39°F , 4°C
Wind Chill: 35°F , 2°C
Dew Point: 36°F , 2°C
Humidity: 87%
Barometer: 30.06 inHg , 1018 hPa
Summary: Clear
Visibility: greater than 7 miles , 10 km
2018/02/17 21:20 EGAA 172120Z 15005KT CAVOK 04/02 Q1018